Linndale, Ohio
Current Conditions -  °F | °C
As of 5:51 PM on Friday 28 Nov 2014 (Local Time) from KCLE Reporting Station
Overcast Overcast  
Wind Chill: 19°   Ceiling: 9000
Heat Index: 28°   Visibility: 10mi
Dew Point: 17°   Wind: 9mph
Humidity: 63%   Direction: 210°SSW
Pressure: 30.23"   Gusts: NA
Location:  41.4315°N, 81.8114°W
Report Text: KCLE 282251Z 21008KT 10SM OVC090 M02/M08 A3023 RMK AO2 SLP248 T10221083 $
Loading
Personal Weather Stations






























Interactive Weather Map New forecast layout! Learn more

10-Day Weather Forecast

Advertisements
Track Severe Weather on mobile